Time,TemperatureF,DewpointF,PressureIn,WindDirection,WindDirectionDegrees,WindSpeedMPH,WindSpeedGustMPH,Humidity,HourlyPrecipIn,Conditions,Clouds,dailyrainin,SoftwareType,DateUTC
2013-02-04 00:00:00,9.5,5.6,30.00,East,89,2.0,2.0,84,0.00,,,0.00,Wunderground v.1.15,2013-02-04 06:00:00,
2013-02-04 00:10:00,9.4,5.5,29.99,East,100,2.0,2.0,84,0.00,,,0.00,Wunderground v.1.15,2013-02-04 06:10:00,
2013-02-04 00:15:00,9.3,5.4,29.99,ESE,107,2.0,3.0,84,0.00,,,0.00,Wunderground v.1.15,2013-02-04 06:15:00,
2013-02-04 00:25:00,9.0,5.1,30.00,ESE,107,2.0,3.0,84,0.00,,,0.00,Wunderground v.1.15,2013-02-04 06:25:00,
2013-02-04 00:30:00,8.9,5.1,30.00,East,96,2.0,3.0,84,0.00,,,0.00,Wunderground v.1.15,2013-02-04 06:30:00,
2013-02-04 00:35:00,8.9,5.1,30.00,ESE,123,2.0,3.0,84,0.00,,,0.00,Wunderground v.1.15,2013-02-04 06:35:00,
2013-02-04 00:40:00,8.8,5.0,30.00,SE,133,2.0,2.0,84,0.00,,,0.00,Wunderground v.1.15,2013-02-04 06:40:00,
2013-02-04 00:45:00,8.8,5.0,30.00,SE,136,1.0,2.0,84,0.00,,,0.00,Wunderground v.1.15,2013-02-04 06:45:00,
2013-02-04 00:55:00,8.7,5.1,30.00,SE,135,1.0,3.0,85,0.00,,,0.00,Wunderground v.1.15,2013-02-04 06:55:00,
2013-02-04 01:00:00,8.7,5.1,30.00,SE,134,1.0,1.0,85,0.00,,,0.00,Wunderground v.1.15,2013-02-04 07:00:00,
2013-02-04 01:10:00,8.7,5.1,30.00,SE,135,1.0,1.0,85,0.00,,,0.00,Wunderground v.1.15,2013-02-04 07:10:00,
2013-02-04 01:15:00,8.7,5.1,30.00,SE,135,1.0,1.0,85,0.00,,,0.00,Wunderground v.1.15,2013-02-04 07:15:00,
2013-02-04 01:25:00,8.8,5.2,30.00,SE,135,0.0,1.0,85,0.00,,,0.00,Wunderground v.1.15,2013-02-04 07:25:00,
2013-02-04 01:30:00,8.8,5.2,30.00,SE,136,0.0,0.0,85,0.00,,,0.00,Wunderground v.1.15,2013-02-04 07:30:00,
2013-02-04 01:35:00,8.9,5.3,30.00,SSE,155,1.0,1.0,85,0.00,,,0.00,Wunderground v.1.15,2013-02-04 07:35:00,
2013-02-04 01:40:00,8.9,5.3,30.00,SSE,155,0.0,0.0,85,0.00,,,0.00,Wunderground v.1.15,2013-02-04 07:40:00,
2013-02-04 01:50:00,9.0,5.7,30.01,SSE,155,1.0,1.0,86,0.00,,,0.00,Wunderground v.1.15,2013-02-04 07:50:00,
2013-02-04 01:55:00,9.1,5.8,30.01,SSE,155,0.0,1.0,86,0.00,,,0.00,Wunderground v.1.15,2013-02-04 07:55:00,
2013-02-04 02:00:00,9.1,5.8,30.01,SSE,155,0.0,0.0,86,0.00,,,0.00,Wunderground v.1.15,2013-02-04 08:00:00,
2013-02-04 02:10:00,9.2,5.9,30.01,SSE,155,0.0,0.0,86,0.00,,,0.00,Wunderground v.1.15,2013-02-04 08:10:00,
2013-02-04 02:15:00,9.3,6.0,30.01,SSE,155,0.0,1.0,86,0.00,,,0.00,Wunderground v.1.15,2013-02-04 08:15:00,
2013-02-04 02:20:00,9.3,6.0,30.02,SSE,155,0.0,0.0,86,0.00,,,0.00,Wunderground v.1.15,2013-02-04 08:20:00,
2013-02-04 02:25:00,9.4,6.1,30.02,SSE,155,0.0,0.0,86,0.00,,,0.00,Wunderground v.1.15,2013-02-04 08:25:00,
2013-02-04 02:30:00,9.4,6.1,30.02,SSE,155,0.0,0.0,86,0.00,,,0.00,Wunderground v.1.15,2013-02-04 08:30:00,
2013-02-04 02:35:00,9.4,6.1,30.02,SSE,155,0.0,1.0,86,0.00,,,0.00,Wunderground v.1.15,2013-02-04 08:35:00,
2013-02-04 02:45:00,9.5,6.4,30.02,SSE,155,1.0,1.0,87,0.00,,,0.00,Wunderground v.1.15,2013-02-04 08:45:00,
2013-02-04 02:50:00,9.6,6.5,30.02,SSE,163,0.0,0.0,87,0.00,,,0.00,Wunderground v.1.15,2013-02-04 08:50:00,
2013-02-04 02:55:00,9.5,6.4,30.02,SSE,163,1.0,1.0,87,0.00,,,0.00,Wunderground v.1.15,2013-02-04 08:55:00,
2013-02-04 03:00:00,9.6,6.5,30.02,SSE,163,1.0,1.0,87,0.00,,,0.00,Wunderground v.1.15,2013-02-04 09:00:00,
2013-02-04 03:10:00,9.6,6.5,30.02,SSE,163,1.0,1.0,87,0.00,,,0.00,Wunderground v.1.15,2013-02-04 09:10:00,
2013-02-04 03:15:00,9.6,6.5,30.02,SSE,163,1.0,1.0,87,0.00,,,0.00,Wunderground v.1.15,2013-02-04 09:15:00,
2013-02-04 03:20:00,9.7,6.9,30.02,SSE,163,1.0,1.0,88,0.00,,,0.00,Wunderground v.1.15,2013-02-04 09:20:00,
2013-02-04 03:25:00,9.8,7.0,30.02,SSE,164,1.0,3.0,88,0.00,,,0.00,Wunderground v.1.15,2013-02-04 09:25:00,
2013-02-04 03:30:00,9.9,7.1,30.01,SSE,164,1.0,1.0,88,0.00,,,0.00,Wunderground v.1.15,2013-02-04 09:30:00,
2013-02-04 03:35:00,9.9,7.1,30.01,SSE,164,1.0,1.0,88,0.00,,,0.00,Wunderground v.1.15,2013-02-04 09:35:00,
2013-02-04 03:40:00,9.9,7.1,30.01,SSE,164,0.0,0.0,88,0.00,,,0.00,Wunderground v.1.15,2013-02-04 09:40:00,
2013-02-04 03:45:00,9.9,7.1,30.02,SSE,164,0.0,1.0,88,0.00,,,0.00,Wunderground v.1.15,2013-02-04 09:45:00,
2013-02-04 03:55:00,10.0,7.2,30.02,SSE,165,1.0,1.0,88,0.00,,,0.00,Wunderground v.1.15,2013-02-04 09:55:00,
2013-02-04 04:00:00,10.1,7.3,30.01,SSE,165,1.0,1.0,88,0.00,,,0.00,Wunderground v.1.15,2013-02-04 10:00:00,
2013-02-04 04:10:00,10.2,7.4,30.02,South,175,1.0,1.0,88,0.00,,,0.00,Wunderground v.1.15,2013-02-04 10:10:00,
2013-02-04 04:15:00,10.3,7.5,30.01,South,175,0.0,1.0,88,0.00,,,0.00,Wunderground v.1.15,2013-02-04 10:15:00,
2013-02-04 04:20:00,10.3,7.5,30.01,South,175,0.0,1.0,88,0.00,,,0.00,Wunderground v.1.15,2013-02-04 10:20:00,
2013-02-04 04:25:00,10.4,7.6,30.01,South,175,0.0,1.0,88,0.00,,,0.00,Wunderground v.1.15,2013-02-04 10:25:00,
2013-02-04 04:30:00,10.5,7.6,30.01,South,175,1.0,1.0,88,0.00,,,0.00,Wunderground v.1.15,2013-02-04 10:30:00,
2013-02-04 04:35:00,10.6,7.7,30.01,South,175,1.0,1.0,88,0.00,,,0.00,Wunderground v.1.15,2013-02-04 10:35:00,
2013-02-04 04:40:00,10.6,7.7,30.00,South,173,1.0,2.0,88,0.00,,,0.00,Wunderground v.1.15,2013-02-04 10:40:00,
2013-02-04 04:45:00,10.7,7.8,30.00,South,172,0.0,2.0,88,0.00,,,0.00,Wunderground v.1.15,2013-02-04 10:45:00,
2013-02-04 04:50:00,10.8,7.9,30.00,South,191,1.0,2.0,88,0.00,,,0.00,Wunderground v.1.15,2013-02-04 10:50:00,
2013-02-04 04:55:00,10.8,7.9,29.99,SSE,157,1.0,4.0,88,0.00,,,0.00,Wunderground v.1.15,2013-02-04 10:55:00,
2013-02-04 05:00:00,10.8,7.9,29.99,South,185,2.0,5.0,88,0.00,,,0.00,Wunderground v.1.15,2013-02-04 11:00:00,
2013-02-04 05:10:00,10.8,7.9,30.00,SSE,152,2.0,2.0,88,0.00,,,0.00,Wunderground v.1.15,2013-02-04 11:10:00,
2013-02-04 05:15:00,10.8,7.9,29.99,SSE,154,2.0,3.0,88,0.00,,,0.00,Wunderground v.1.15,2013-02-04 11:15:00,
2013-02-04 05:20:00,10.8,7.9,29.99,SSE,159,2.0,2.0,88,0.00,,,0.00,Wunderground v.1.15,2013-02-04 11:20:00,
2013-02-04 05:25:00,10.7,7.8,29.99,SSE,164,2.0,2.0,88,0.00,,,0.00,Wunderground v.1.15,2013-02-04 11:25:00,
2013-02-04 05:30:00,10.6,7.7,30.00,SSE,148,3.0,4.0,88,0.00,,,0.00,Wunderground v.1.15,2013-02-04 11:30:00,
2013-02-04 05:35:00,10.5,7.6,29.99,South,180,2.0,4.0,88,0.00,,,0.00,Wunderground v.1.15,2013-02-04 11:35:00,
2013-02-04 05:40:00,10.3,7.5,29.99,SSE,165,2.0,3.0,88,0.00,,,0.00,Wunderground v.1.15,2013-02-04 11:40:00,
2013-02-04 05:45:00,10.2,7.4,29.99,SSE,150,2.0,3.0,88,0.00,,,0.00,Wunderground v.1.15,2013-02-04 11:45:00,
2013-02-04 05:50:00,10.1,7.3,29.99,SSE,152,2.0,2.0,88,0.00,,,0.00,Wunderground v.1.15,2013-02-04 11:50:00,
2013-02-04 06:00:00,10.0,7.2,30.00,South,190,1.0,1.0,88,0.00,,,0.00,Wunderground v.1.15,2013-02-04 12:00:00,
2013-02-04 06:10:00,10.0,7.2,29.99,SSE,156,2.0,2.0,88,0.00,,,0.00,Wunderground v.1.15,2013-02-04 12:10:00,
2013-02-04 06:15:00,10.0,7.2,29.99,SSE,163,2.0,2.0,88,0.00,,,0.00,Wunderground v.1.15,2013-02-04 12:15:00,
2013-02-04 06:25:00,10.1,7.3,29.99,South,178,1.0,2.0,88,0.00,,,0.00,Wunderground v.1.15,2013-02-04 12:25:00,
2013-02-04 06:35:00,10.2,7.4,30.00,South,187,1.0,2.0,88,0.00,,,0.00,Wunderground v.1.15,2013-02-04 12:35:00,
2013-02-04 06:40:00,10.3,7.5,30.00,South,188,1.0,1.0,88,0.00,,,0.00,Wunderground v.1.15,2013-02-04 12:40:00,
2013-02-04 06:45:00,10.5,7.6,30.00,South,188,1.0,1.0,88,0.00,,,0.00,Wunderground v.1.15,2013-02-04 12:45:00,
2013-02-04 06:50:00,10.7,7.8,30.00,SSW,210,1.0,3.0,88,0.00,,,0.00,Wunderground v.1.15,2013-02-04 12:50:00,
2013-02-04 06:55:00,10.9,8.0,30.00,SW,217,2.0,3.0,88,0.00,,,0.00,Wunderground v.1.15,2013-02-04 12:55:00,
2013-02-04 07:00:00,11.0,8.1,30.00,SSW,208,2.0,2.0,88,0.00,,,0.00,Wunderground v.1.15,2013-02-04 13:00:00,
2013-02-04 07:10:00,11.2,8.3,29.98,SSW,207,2.0,2.0,88,0.00,,,0.00,Wunderground v.1.15,2013-02-04 13:10:00,
2013-02-04 07:15:00,11.2,8.3,29.98,South,186,2.0,2.0,88,0.00,,,0.00,Wunderground v.1.15,2013-02-04 13:15:00,
2013-02-04 07:20:00,11.2,8.3,29.98,South,181,2.0,2.0,88,0.00,,,0.00,Wunderground v.1.15,2013-02-04 13:20:00,
2013-02-04 07:30:00,10.9,7.8,29.98,South,179,2.0,2.0,87,0.00,,,0.00,Wunderground v.1.15,2013-02-04 13:30:00,
2013-02-04 07:35:00,10.7,7.6,29.98,South,178,1.0,2.0,87,0.00,,,0.00,Wunderground v.1.15,2013-02-04 13:35:00,
2013-02-04 07:40:00,10.5,7.4,29.98,South,176,2.0,2.0,87,0.00,,,0.00,Wunderground v.1.15,2013-02-04 13:40:00,
2013-02-04 07:45:00,10.3,7.2,29.97,SSE,162,2.0,2.0,87,0.00,,,0.00,Wunderground v.1.15,2013-02-04 13:45:00,
2013-02-04 07:55:00,9.9,6.8,29.96,SSE,168,2.0,2.0,87,0.00,,,0.00,Wunderground v.1.15,2013-02-04 13:55:00,
2013-02-04 08:00:00,9.6,6.5,29.96,SE,126,2.0,4.0,87,0.00,,,0.00,Wunderground v.1.15,2013-02-04 14:00:00,
2013-02-04 08:10:00,9.5,6.4,29.95,SSE,148,2.0,3.0,87,0.00,,,0.00,Wunderground v.1.15,2013-02-04 14:10:00,
2013-02-04 08:20:00,9.1,6.0,29.96,SSE,150,2.0,2.0,87,0.00,,,0.00,Wunderground v.1.15,2013-02-04 14:20:00,
2013-02-04 08:25:00,9.1,6.0,29.96,SE,134,2.0,2.0,87,0.00,,,0.00,Wunderground v.1.15,2013-02-04 14:25:00,
2013-02-04 08:30:00,9.2,6.1,29.96,SSE,163,2.0,2.0,87,0.00,,,0.00,Wunderground v.1.15,2013-02-04 14:30:00,
2013-02-04 08:35:00,9.5,6.4,29.96,SSE,160,2.0,4.0,87,0.00,,,0.00,Wunderground v.1.15,2013-02-04 14:35:00,
2013-02-04 08:45:00,10.0,6.9,29.96,SE,126,2.0,2.0,87,0.00,,,0.00,Wunderground v.1.15,2013-02-04 14:45:00,
2013-02-04 08:50:00,10.4,7.3,29.96,SE,138,2.0,2.0,87,0.00,,,0.00,Wunderground v.1.15,2013-02-04 14:50:00,
2013-02-04 08:55:00,10.6,7.5,29.96,ESE,115,2.0,3.0,87,0.00,,,0.00,Wunderground v.1.15,2013-02-04 14:55:00,
2013-02-04 09:00:00,10.8,7.7,29.96,SSE,166,2.0,2.0,87,0.00,,,0.00,Wunderground v.1.15,2013-02-04 15:00:00,
2013-02-04 09:10:00,11.4,8.3,29.95,SE,144,2.0,2.0,87,0.00,,,0.00,Wunderground v.1.15,2013-02-04 15:10:00,
2013-02-04 09:15:00,11.9,9.0,29.95,SE,134,2.0,2.0,88,0.00,,,0.00,Wunderground v.1.15,2013-02-04 15:15:00,
2013-02-04 09:20:00,12.4,9.5,29.95,SSE,150,3.0,3.0,88,0.00,,,0.00,Wunderground v.1.15,2013-02-04 15:20:00,
2013-02-04 09:25:00,12.7,9.8,29.94,SSE,153,4.0,5.0,88,0.00,,,0.00,Wunderground v.1.15,2013-02-04 15:25:00,
2013-02-04 09:30:00,13.0,10.1,29.94,SE,141,4.0,7.0,88,0.00,,,0.00,Wunderground v.1.15,2013-02-04 15:30:00,
2013-02-04 09:35:00,13.3,10.4,29.93,SSE,161,4.0,7.0,88,0.00,,,0.00,Wunderground v.1.15,2013-02-04 15:35:00,
2013-02-04 09:40:00,13.6,10.7,29.93,South,173,3.0,5.0,88,0.00,,,0.00,Wunderground v.1.15,2013-02-04 15:40:00,
2013-02-04 09:50:00,14.2,11.3,29.92,SSE,154,3.0,3.0,88,0.00,,,0.00,Wunderground v.1.15,2013-02-04 15:50:00,
2013-02-04 09:55:00,14.4,11.5,29.93,SSE,161,3.0,3.0,88,0.00,,,0.00,Wunderground v.1.15,2013-02-04 15:55:00,
2013-02-04 10:00:00,14.7,11.8,29.93,SSE,167,3.0,3.0,88,0.00,,,0.00,Wunderground v.1.15,2013-02-04 16:00:00,
2013-02-04 10:10:00,15.4,12.5,29.93,SSE,157,3.0,3.0,88,0.00,,,0.00,Wunderground v.1.15,2013-02-04 16:10:00,
2013-02-04 10:15:00,15.9,13.0,29.93,SSW,202,3.0,4.0,88,0.00,,,0.00,Wunderground v.1.15,2013-02-04 16:15:00,
2013-02-04 10:20:00,16.3,13.4,29.93,SSE,156,3.0,3.0,88,0.00,,,0.00,Wunderground v.1.15,2013-02-04 16:20:00,
2013-02-04 10:25:00,16.7,13.5,29.93,South,184,3.0,3.0,87,0.00,,,0.00,Wunderground v.1.15,2013-02-04 16:25:00,
2013-02-04 10:30:00,17.1,13.9,29.93,South,175,2.0,2.0,87,0.00,,,0.00,Wunderground v.1.15,2013-02-04 16:30:00,
2013-02-04 10:35:00,17.5,14.3,29.92,SSE,156,2.0,3.0,87,0.00,,,0.00,Wunderground v.1.15,2013-02-04 16:35:00,
2013-02-04 10:40:00,17.8,14.3,29.92,South,190,2.0,8.0,86,0.00,,,0.00,Wunderground v.1.15,2013-02-04 16:40:00,
2013-02-04 10:45:00,18.4,14.9,29.92,SSE,150,3.0,8.0,86,0.00,,,0.00,Wunderground v.1.15,2013-02-04 16:45:00,
2013-02-04 10:50:00,18.9,15.4,29.92,SSE,159,2.0,2.0,86,0.00,,,0.00,Wunderground v.1.15,2013-02-04 16:50:00,
2013-02-04 10:55:00,19.2,15.7,29.91,South,185,2.0,2.0,86,0.00,,,0.00,Wunderground v.1.15,2013-02-04 16:55:00,
2013-02-04 11:00:00,19.7,15.9,29.92,South,170,2.0,3.0,85,0.00,,,0.00,Wunderground v.1.15,2013-02-04 17:00:00,
2013-02-04 11:10:00,20.6,16.8,29.91,South,170,2.0,2.0,85,0.00,,,0.00,Wunderground v.1.15,2013-02-04 17:10:00,
2013-02-04 11:15:00,21.1,17.3,29.91,SSW,198,2.0,2.0,85,0.00,,,0.00,Wunderground v.1.15,2013-02-04 17:15:00,
2013-02-04 11:20:00,21.5,17.4,29.91,South,189,2.0,3.0,84,0.00,,,0.00,Wunderground v.1.15,2013-02-04 17:20:00,
2013-02-04 11:25:00,21.6,17.5,29.91,South,169,3.0,3.0,84,0.00,,,0.00,Wunderground v.1.15,2013-02-04 17:25:00,
2013-02-04 11:30:00,21.9,17.8,29.91,SE,146,3.0,6.0,84,0.00,,,0.00,Wunderground v.1.15,2013-02-04 17:30:00,
2013-02-04 11:40:00,21.5,17.4,29.90,SSE,155,4.0,4.0,84,0.00,,,0.00,Wunderground v.1.15,2013-02-04 17:40:00,
2013-02-04 11:45:00,21.7,17.6,29.89,SW,219,4.0,5.0,84,0.00,,,0.00,Wunderground v.1.15,2013-02-04 17:45:00,
2013-02-04 11:50:00,21.7,17.6,29.89,South,169,5.0,5.0,84,0.00,,,0.00,Wunderground v.1.15,2013-02-04 17:50:00,
2013-02-04 11:55:00,21.5,17.4,29.88,SE,142,5.0,10.0,84,0.00,,,0.00,Wunderground v.1.15,2013-02-04 17:55:00,
2013-02-04 12:00:00,21.7,17.6,29.88,South,182,5.0,5.0,84,0.00,,,0.00,Wunderground v.1.15,2013-02-04 18:00:00,
2013-02-04 12:10:00,22.5,18.4,29.89,SSE,164,4.0,4.0,84,0.00,,,0.00,Wunderground v.1.15,2013-02-04 18:10:00,
2013-02-04 12:15:00,23.0,18.9,29.88,SSE,165,3.0,4.0,84,0.00,,,0.00,Wunderground v.1.15,2013-02-04 18:15:00,
2013-02-04 12:20:00,23.6,19.5,29.88,South,178,3.0,4.0,84,0.00,,,0.00,Wunderground v.1.15,2013-02-04 18:20:00,
2013-02-04 12:25:00,24.4,20.0,29.88,SSW,205,3.0,5.0,83,0.00,,,0.00,Wunderground v.1.15,2013-02-04 18:25:00,
2013-02-04 12:30:00,25.0,20.3,29.87,SSW,195,3.0,3.0,82,0.00,,,0.00,Wunderground v.1.15,2013-02-04 18:30:00,
2013-02-04 12:35:00,25.4,20.7,29.87,South,191,4.0,4.0,82,0.00,,,0.00,Wunderground v.1.15,2013-02-04 18:35:00,
2013-02-04 12:40:00,25.7,20.7,29.86,SSW,212,4.0,5.0,81,0.00,,,0.00,Wunderground v.1.15,2013-02-04 18:40:00,
2013-02-04 12:45:00,25.4,20.4,29.85,SW,225,4.0,5.0,81,0.00,,,0.00,Wunderground v.1.15,2013-02-04 18:45:00,
2013-02-04 12:50:00,25.0,20.0,29.85,SSE,148,4.0,6.0,81,0.00,,,0.00,Wunderground v.1.15,2013-02-04 18:50:00,
2013-02-04 13:00:00,24.6,20.2,29.84,SSW,194,4.0,4.0,83,0.00,,,0.00,Wunderground v.1.15,2013-02-04 19:00:00,
2013-02-04 13:10:00,25.3,20.9,29.83,South,179,4.0,4.0,83,0.00,,,0.00,Wunderground v.1.15,2013-02-04 19:10:00,
2013-02-04 13:20:00,25.0,20.6,29.82,SSE,168,5.0,5.0,83,0.00,,,0.00,Wunderground v.1.15,2013-02-04 19:20:00,
2013-02-04 13:25:00,24.9,20.5,29.82,SSW,193,5.0,6.0,83,0.00,,,0.00,Wunderground v.1.15,2013-02-04 19:25:00,
2013-02-04 13:30:00,25.1,20.7,29.81,SSW,209,4.0,6.0,83,0.00,,,0.00,Wunderground v.1.15,2013-02-04 19:30:00,
2013-02-04 13:35:00,25.1,20.7,29.81,SSE,165,4.0,6.0,83,0.00,,,0.00,Wunderground v.1.15,2013-02-04 19:35:00,
2013-02-04 13:40:00,25.2,21.0,29.80,South,178,5.0,9.0,84,0.00,,,0.00,Wunderground v.1.15,2013-02-04 19:40:00,
2013-02-04 13:45:00,25.3,21.1,29.80,SSE,167,5.0,9.0,84,0.00,,,0.00,Wunderground v.1.15,2013-02-04 19:45:00,
2013-02-04 13:55:00,25.5,21.6,29.79,South,187,5.0,5.0,85,0.00,,,0.00,Wunderground v.1.15,2013-02-04 19:55:00,
2013-02-04 14:00:00,25.4,21.5,29.79,South,188,5.0,5.0,85,0.00,,,0.00,Wunderground v.1.15,2013-02-04 20:00:00,
2013-02-04 14:10:00,25.2,21.6,29.79,SSW,210,5.0,5.0,86,0.00,,,0.00,Wunderground v.1.15,2013-02-04 20:10:00,
2013-02-04 14:15:00,25.1,21.5,29.79,South,176,5.0,5.0,86,0.00,,,0.00,Wunderground v.1.15,2013-02-04 20:15:00,
2013-02-04 14:20:00,25.0,21.7,29.79,SSE,148,5.0,5.0,87,0.00,,,0.00,Wunderground v.1.15,2013-02-04 20:20:00,
2013-02-04 14:25:00,25.0,21.7,29.78,SSE,156,4.0,5.0,87,0.00,,,0.00,Wunderground v.1.15,2013-02-04 20:25:00,
2013-02-04 14:30:00,25.0,21.9,29.78,South,188,3.0,3.0,88,0.00,,,0.00,Wunderground v.1.15,2013-02-04 20:30:00,
2013-02-04 14:35:00,25.2,22.1,29.78,SSW,192,3.0,3.0,88,0.00,,,0.00,Wunderground v.1.15,2013-02-04 20:35:00,
2013-02-04 14:40:00,25.3,22.2,29.78,SE,146,3.0,3.0,88,0.00,,,0.00,Wunderground v.1.15,2013-02-04 20:40:00,
2013-02-04 14:50:00,25.4,22.3,29.77,South,173,2.0,3.0,88,0.00,,,0.00,Wunderground v.1.15,2013-02-04 20:50:00,
2013-02-04 14:55:00,25.4,22.3,29.76,SSW,194,2.0,3.0,88,0.00,,,0.00,Wunderground v.1.15,2013-02-04 20:55:00,
2013-02-04 15:00:00,25.6,22.8,29.76,SSE,160,2.0,2.0,89,0.00,,,0.00,Wunderground v.1.15,2013-02-04 21:00:00,
2013-02-04 15:10:00,25.6,22.8,29.76,SSE,150,4.0,4.0,89,0.00,,,0.00,Wunderground v.1.15,2013-02-04 21:10:00,
2013-02-04 15:20:00,25.6,22.8,29.76,SSE,162,3.0,3.0,89,0.00,,,0.00,Wunderground v.1.15,2013-02-04 21:20:00,
2013-02-04 15:25:00,25.8,23.0,29.76,SSE,166,3.0,3.0,89,0.00,,,0.00,Wunderground v.1.15,2013-02-04 21:25:00,
2013-02-04 15:30:00,26.0,23.2,29.76,SSE,157,2.0,2.0,89,0.00,,,0.00,Wunderground v.1.15,2013-02-04 21:30:00,
2013-02-04 15:35:00,26.2,23.4,29.75,SSE,149,2.0,2.0,89,0.00,,,0.00,Wunderground v.1.15,2013-02-04 21:35:00,
2013-02-04 15:40:00,26.5,24.0,29.75,SW,225,3.0,3.0,90,0.00,,,0.00,Wunderground v.1.15,2013-02-04 21:40:00,
2013-02-04 15:45:00,27.0,24.2,29.74,South,190,4.0,7.0,89,0.00,,,0.00,Wunderground v.1.15,2013-02-04 21:45:00,
2013-02-04 15:50:00,27.3,24.5,29.74,South,179,5.0,6.0,89,0.00,,,0.00,Wunderground v.1.15,2013-02-04 21:50:00,
2013-02-04 15:55:00,27.5,24.7,29.74,SSW,196,5.0,7.0,89,0.00,,,0.00,Wunderground v.1.15,2013-02-04 21:55:00,
2013-02-04 16:00:00,27.6,24.8,29.74,SSW,193,5.0,5.0,89,0.00,,,0.00,Wunderground v.1.15,2013-02-04 22:00:00,
2013-02-04 16:10:00,27.8,25.0,29.74,SSW,198,5.0,5.0,89,0.00,,,0.00,Wunderground v.1.15,2013-02-04 22:10:00,
2013-02-04 16:15:00,28.0,25.2,29.74,SSW,198,4.0,7.0,89,0.00,,,0.00,Wunderground v.1.15,2013-02-04 22:15:00,
2013-02-04 16:20:00,28.1,25.3,29.73,SSW,197,4.0,5.0,89,0.00,,,0.00,Wunderground v.1.15,2013-02-04 22:20:00,
2013-02-04 16:25:00,28.3,25.5,29.73,South,180,5.0,12.0,89,0.00,,,0.00,Wunderground v.1.15,2013-02-04 22:25:00,
2013-02-04 16:30:00,28.3,25.5,29.73,South,184,5.0,5.0,89,0.00,,,0.00,Wunderground v.1.15,2013-02-04 22:30:00,
2013-02-04 16:35:00,28.4,25.6,29.72,South,186,5.0,5.0,89,0.00,,,0.00,Wunderground v.1.15,2013-02-04 22:35:00,
2013-02-04 16:40:00,28.5,25.7,29.72,South,184,4.0,4.0,89,0.00,,,0.00,Wunderground v.1.15,2013-02-04 22:40:00,
2013-02-04 16:45:00,28.4,25.3,29.72,SSW,209,4.0,4.0,88,0.00,,,0.00,Wunderground v.1.15,2013-02-04 22:45:00,
2013-02-04 16:50:00,28.4,25.3,29.71,South,173,5.0,5.0,88,0.00,,,0.00,Wunderground v.1.15,2013-02-04 22:50:00,
2013-02-04 17:00:00,28.4,25.3,29.71,SSW,192,4.0,4.0,88,0.00,,,0.00,Wunderground v.1.15,2013-02-04 23:00:00,
2013-02-04 17:10:00,28.3,25.2,29.71,SSW,205,3.0,3.0,88,0.00,,,0.00,Wunderground v.1.15,2013-02-04 23:10:00,
2013-02-04 17:15:00,28.2,25.1,29.71,SSE,156,2.0,3.0,88,0.00,,,0.00,Wunderground v.1.15,2013-02-04 23:15:00,
2013-02-04 17:20:00,28.0,24.9,29.70,SSE,164,3.0,3.0,88,0.00,,,0.00,Wunderground v.1.15,2013-02-04 23:20:00,
2013-02-04 17:25:00,27.9,24.8,29.69,South,186,3.0,3.0,88,0.00,,,0.00,Wunderground v.1.15,2013-02-04 23:25:00,
2013-02-04 17:30:00,27.8,24.7,29.69,South,180,3.0,4.0,88,0.00,,,0.00,Wunderground v.1.15,2013-02-04 23:30:00,
2013-02-04 17:35:00,27.6,24.5,29.69,SSE,148,3.0,4.0,88,0.00,,,0.00,Wunderground v.1.15,2013-02-04 23:35:00,
2013-02-04 17:40:00,27.2,24.1,29.69,SSE,156,3.0,3.0,88,0.00,,,0.00,Wunderground v.1.15,2013-02-04 23:40:00,
2013-02-04 17:45:00,26.9,23.8,29.69,SSE,159,2.0,3.0,88,0.00,,,0.00,Wunderground v.1.15,2013-02-04 23:45:00,
2013-02-04 17:50:00,26.9,23.8,29.69,SSE,164,2.0,2.0,88,0.00,,,0.00,Wunderground v.1.15,2013-02-04 23:50:00,
2013-02-04 18:00:00,26.9,24.1,29.69,SE,128,2.0,2.0,89,0.00,,,0.00,Wunderground v.1.15,2013-02-05 00:00:00,
2013-02-04 18:10:00,26.6,23.8,29.69,SE,128,0.0,0.0,89,0.00,,,0.00,Wunderground v.1.15,2013-02-05 00:10:00,
2013-02-04 18:15:00,26.3,23.2,29.69,SE,128,0.0,0.0,88,0.00,,,0.00,Wunderground v.1.15,2013-02-05 00:15:00,
2013-02-04 18:20:00,25.8,22.7,29.69,SE,128,0.0,0.0,88,0.00,,,0.00,Wunderground v.1.15,2013-02-05 00:20:00,
2013-02-04 18:25:00,25.2,22.1,29.69,SE,128,1.0,3.0,88,0.00,,,0.00,Wunderground v.1.15,2013-02-05 00:25:00,
2013-02-04 18:30:00,24.7,21.7,29.69,SE,128,1.0,1.0,88,0.00,,,0.00,Wunderground v.1.15,2013-02-05 00:30:00,
2013-02-04 18:35:00,24.3,21.3,29.69,SE,129,1.0,1.0,88,0.00,,,0.00,Wunderground v.1.15,2013-02-05 00:35:00,
2013-02-04 18:40:00,24.0,21.2,29.69,SE,129,0.0,0.0,89,0.00,,,0.00,Wunderground v.1.15,2013-02-05 00:40:00,
2013-02-04 18:50:00,24.9,22.4,29.69,SSW,198,1.0,1.0,90,0.00,,,0.00,Wunderground v.1.15,2013-02-05 00:50:00,
2013-02-04 18:55:00,25.1,22.6,29.69,WSW,250,1.0,1.0,90,0.00,,,0.00,Wunderground v.1.15,2013-02-05 00:55:00,
2013-02-04 19:00:00,25.3,23.0,29.68,WSW,250,1.0,1.0,91,0.00,,,0.00,Wunderground v.1.15,2013-02-05 01:00:00,
2013-02-04 19:10:00,25.9,23.6,29.68,SSW,200,2.0,2.0,91,0.00,,,0.00,Wunderground v.1.15,2013-02-05 01:10:00,
2013-02-04 19:15:00,26.0,23.7,29.69,SW,220,2.0,2.0,91,0.00,,,0.00,Wunderground v.1.15,2013-02-05 01:15:00,
2013-02-04 19:20:00,26.0,23.7,29.68,SW,219,1.0,1.0,91,0.00,,,0.00,Wunderground v.1.15,2013-02-05 01:20:00,
2013-02-04 19:25:00,25.7,23.2,29.68,SSW,200,1.0,1.0,90,0.00,,,0.00,Wunderground v.1.15,2013-02-05 01:25:00,
2013-02-04 19:30:00,25.5,23.0,29.68,SSW,200,1.0,4.0,90,0.00,,,0.00,Wunderground v.1.15,2013-02-05 01:30:00,
2013-02-04 19:35:00,25.5,23.0,29.68,SSW,211,2.0,4.0,90,0.00,,,0.00,Wunderground v.1.15,2013-02-05 01:35:00,
2013-02-04 19:40:00,25.8,23.5,29.68,SW,229,2.0,2.0,91,0.00,,,0.00,Wunderground v.1.15,2013-02-05 01:40:00,
2013-02-04 19:50:00,26.9,24.6,29.68,SW,217,3.0,3.0,91,0.00,,,0.00,Wunderground v.1.15,2013-02-05 01:50:00,
2013-02-04 19:55:00,27.4,25.1,29.68,SW,218,2.0,3.0,91,0.00,,,0.00,Wunderground v.1.15,2013-02-05 01:55:00,
2013-02-04 20:00:00,27.7,25.4,29.68,SW,218,1.0,1.0,91,0.00,,,0.00,Wunderground v.1.15,2013-02-05 02:00:00,
2013-02-04 20:10:00,28.7,26.4,29.67,WNW,284,1.0,1.0,91,0.00,,,0.00,Wunderground v.1.15,2013-02-05 02:10:00,
2013-02-04 20:15:00,29.8,27.8,29.67,West,269,2.0,4.0,92,0.00,,,0.00,Wunderground v.1.15,2013-02-05 02:15:00,
2013-02-04 20:20:00,31.3,29.0,29.67,West,263,3.0,3.0,91,0.00,,,0.00,Wunderground v.1.15,2013-02-05 02:20:00,
2013-02-04 20:25:00,32.4,29.8,29.67,West,259,4.0,4.0,90,0.00,,,0.00,Wunderground v.1.15,2013-02-05 02:25:00,
2013-02-04 20:30:00,33.3,29.8,29.66,WNW,290,4.0,5.0,87,0.00,,,0.00,Wunderground v.1.15,2013-02-05 02:30:00,
2013-02-04 20:40:00,34.2,29.6,29.66,WNW,283,5.0,9.0,83,0.00,,,0.00,Wunderground v.1.15,2013-02-05 02:40:00,
2013-02-04 20:45:00,34.4,29.8,29.67,West,277,5.0,9.0,83,0.00,,,0.00,Wunderground v.1.15,2013-02-05 02:45:00,
2013-02-04 20:50:00,34.3,29.4,29.67,WSW,240,4.0,5.0,82,0.00,,,0.00,Wunderground v.1.15,2013-02-05 02:50:00,
2013-02-04 21:00:00,34.3,29.4,29.67,West,272,4.0,4.0,82,0.00,,,0.00,Wunderground v.1.15,2013-02-05 03:00:00,
2013-02-04 21:10:00,34.5,29.6,29.67,West,265,5.0,5.0,82,0.00,,,0.00,Wunderground v.1.15,2013-02-05 03:10:00,
2013-02-04 21:15:00,34.9,29.7,29.67,West,273,6.0,6.0,81,0.00,,,0.00,Wunderground v.1.15,2013-02-05 03:15:00,
2013-02-04 21:20:00,35.0,29.8,29.67,West,277,5.0,5.0,81,0.00,,,0.00,Wunderground v.1.15,2013-02-05 03:20:00,
2013-02-04 21:25:00,35.1,29.9,29.67,West,276,4.0,5.0,81,0.00,,,0.00,Wunderground v.1.15,2013-02-05 03:25:00,
2013-02-04 21:35:00,35.1,29.9,29.67,West,279,4.0,4.0,81,0.00,,,0.00,Wunderground v.1.15,2013-02-05 03:35:00,
2013-02-04 21:40:00,35.2,30.0,29.67,WNW,283,3.0,4.0,81,0.00,,,0.00,Wunderground v.1.15,2013-02-05 03:40:00,
2013-02-04 21:45:00,35.2,30.0,29.67,WNW,284,3.0,4.0,81,0.00,,,0.00,Wunderground v.1.15,2013-02-05 03:45:00,
2013-02-04 21:55:00,35.4,29.8,29.67,West,275,3.0,7.0,80,0.00,,,0.00,Wunderground v.1.15,2013-02-05 03:55:00,
2013-02-04 22:00:00,35.4,29.8,29.67,WNW,284,2.0,4.0,80,0.00,,,0.00,Wunderground v.1.15,2013-02-05 04:00:00,
2013-02-04 22:10:00,35.1,29.6,29.67,West,277,1.0,1.0,80,0.00,,,0.00,Wunderground v.1.15,2013-02-05 04:10:00,
2013-02-04 22:20:00,34.5,29.3,29.67,West,277,0.0,0.0,81,0.00,,,0.00,Wunderground v.1.15,2013-02-05 04:20:00,
2013-02-04 22:25:00,34.4,29.5,29.67,West,277,0.0,0.0,82,0.00,,,0.00,Wunderground v.1.15,2013-02-05 04:25:00,
2013-02-04 22:30:00,34.4,29.8,29.67,West,279,1.0,1.0,83,0.00,,,0.00,Wunderground v.1.15,2013-02-05 04:30:00,
2013-02-04 22:35:00,34.4,29.8,29.67,West,275,1.0,1.0,83,0.00,,,0.00,Wunderground v.1.15,2013-02-05 04:35:00,
2013-02-04 22:45:00,34.4,29.8,29.67,West,278,2.0,4.0,83,0.00,,,0.00,Wunderground v.1.15,2013-02-05 04:45:00,
2013-02-04 22:50:00,34.6,29.7,29.67,West,281,2.0,4.0,82,0.00,,,0.00,Wunderground v.1.15,2013-02-05 04:50:00,
2013-02-04 23:00:00,34.9,30.0,29.68,West,275,3.0,3.0,82,0.00,,,0.00,Wunderground v.1.15,2013-02-05 05:00:00,
2013-02-04 23:05:00,35.1,30.2,29.68,West,280,3.0,3.0,82,0.00,,,0.00,Wunderground v.1.15,2013-02-05 05:05:00,
2013-02-04 23:10:00,35.3,30.1,29.67,WNW,286,3.0,3.0,81,0.00,,,0.00,Wunderground v.1.15,2013-02-05 05:10:00,
2013-02-04 23:15:00,35.3,30.1,29.67,West,280,3.0,5.0,81,0.00,,,0.00,Wunderground v.1.15,2013-02-05 05:15:00,
2013-02-04 23:25:00,35.2,30.0,29.67,WNW,283,3.0,4.0,81,0.00,,,0.00,Wunderground v.1.15,2013-02-05 05:25:00,
2013-02-04 23:30:00,35.1,29.9,29.67,West,277,3.0,5.0,81,0.00,,,0.00,Wunderground v.1.15,2013-02-05 05:30:00,
2013-02-04 23:35:00,35.1,29.9,29.67,WNW,287,3.0,5.0,81,0.00,,,0.00,Wunderground v.1.15,2013-02-05 05:35:00,
2013-02-04 23:45:00,34.8,29.9,29.67,West,276,3.0,3.0,82,0.00,,,0.00,Wunderground v.1.15,2013-02-05 05:45:00,
2013-02-04 23:50:00,34.6,29.7,29.67,West,281,4.0,4.0,82,0.00,,,0.00,Wunderground v.1.15,2013-02-05 05:50:00,
2013-02-04 23:55:00,34.4,29.5,29.67,WNW,283,3.0,5.0,82,0.00,,,0.00,Wunderground v.1.15,2013-02-05 05:55:00,